createdAt,value
2022-11-30T00:00:18.559Z,9.78
2022-11-30T00:05:18.526Z,9.75
2022-11-30T00:10:18.450Z,9.76
2022-11-30T00:15:18.631Z,9.68
2022-11-30T00:20:18.344Z,9.65
2022-11-30T00:25:18.298Z,9.65
2022-11-30T05:00:30.030Z,9.35
2022-11-30T05:05:29.835Z,9.32
2022-11-30T05:10:29.755Z,9.19
2022-11-30T05:15:36.766Z,9.07
2022-11-30T05:20:29.655Z,9.05
2022-11-30T05:25:29.605Z,8.84
2022-11-30T05:30:29.536Z,8.75
2022-11-30T05:35:29.520Z,8.70
2022-11-30T05:40:29.452Z,8.61
2022-11-30T05:45:29.374Z,8.59
2022-11-30T05:50:29.335Z,8.58
2022-11-30T05:55:29.317Z,8.45
2022-11-30T06:00:29.214Z,8.38
2022-11-30T06:05:29.176Z,8.30
2022-11-30T06:10:29.126Z,8.37
2022-11-30T06:15:29.073Z,8.35
2022-11-30T06:20:29.010Z,8.34
2022-11-30T06:25:28.964Z,8.35
2022-11-30T06:30:28.908Z,8.31
2022-11-30T06:35:28.888Z,8.22
2022-11-30T06:40:28.812Z,8.13
2022-11-30T06:45:28.798Z,8.17
2022-11-30T06:50:28.693Z,8.17
2022-11-30T06:55:28.660Z,8.23
2022-11-30T07:00:28.633Z,8.29
2022-11-30T07:05:28.531Z,8.31
2022-11-30T07:10:28.579Z,8.18
2022-11-30T07:15:28.434Z,8.35
2022-11-30T07:20:28.480Z,8.44
2022-11-30T07:25:28.328Z,8.54
2022-11-30T07:30:28.339Z,8.50
2022-11-30T07:35:28.239Z,8.50
2022-11-30T07:40:28.170Z,8.77
2022-11-30T07:45:28.090Z,8.84
2022-11-30T07:50:28.064Z,8.92
2022-11-30T07:55:28.037Z,8.88
2022-11-30T08:00:27.950Z,8.93
2022-11-30T08:05:28.000Z,8.81
2022-11-30T08:10:27.851Z,8.84
2022-11-30T08:15:32.517Z,8.64
2022-11-30T08:20:28.732Z,8.67
2022-11-30T08:25:27.676Z,8.83
2022-11-30T08:30:27.926Z,8.75
2022-11-30T08:35:27.604Z,8.77
2022-11-30T08:40:27.513Z,8.92
2022-11-30T08:45:27.464Z,8.89
2022-11-30T08:50:27.397Z,8.93
2022-11-30T08:55:27.379Z,9.22
2022-11-30T09:00:27.332Z,9.10
2022-11-30T09:05:27.241Z,9.13
2022-11-30T09:10:27.196Z,9.25
2022-11-30T09:15:27.162Z,9.36
2022-11-30T09:20:27.074Z,9.38
2022-11-30T09:25:27.062Z,9.56
2022-11-30T09:30:27.044Z,9.59
2022-11-30T09:35:26.951Z,9.63
2022-11-30T09:40:29.870Z,9.69
2022-11-30T09:45:27.823Z,9.54
2022-11-30T09:50:26.779Z,9.47
2022-11-30T09:55:26.768Z,9.43
2022-11-30T10:00:26.653Z,9.41
2022-11-30T10:05:26.713Z,9.38
2022-11-30T10:10:34.122Z,9.41
2022-11-30T10:15:27.581Z,9.27
2022-11-30T10:20:26.439Z,9.45
2022-11-30T10:25:26.396Z,9.30
2022-11-30T10:30:26.359Z,9.30
2022-11-30T10:35:26.303Z,9.34
2022-11-30T10:40:26.233Z,9.46
2022-11-30T10:45:26.191Z,9.47
2022-11-30T10:50:26.143Z,9.35
2022-11-30T10:55:26.135Z,9.40
2022-11-30T11:00:26.018Z,9.52
2022-11-30T11:05:25.991Z,9.43
2022-11-30T11:10:25.900Z,9.55
2022-11-30T11:15:33.158Z,9.33
2022-11-30T11:20:25.805Z,9.47
2022-11-30T11:25:26.019Z,9.38
2022-11-30T11:30:25.697Z,9.42
2022-11-30T11:35:25.681Z,9.54
2022-11-30T11:40:25.594Z,9.32
2022-11-30T11:45:25.524Z,9.54
2022-11-30T11:50:57.891Z,9.60
2022-11-30T11:55:26.458Z,9.81
2022-11-30T12:00:25.417Z,9.59
2022-11-30T12:05:25.329Z,9.41
2022-11-30T12:15:26.236Z,9.41
2022-11-30T12:20:25.166Z,9.38
2022-11-30T12:25:25.323Z,9.31
2022-11-30T12:30:25.045Z,9.38
2022-11-30T12:35:25.033Z,9.29
2022-11-30T12:40:24.953Z,9.20
2022-11-30T12:45:24.896Z,9.19
2022-11-30T12:50:24.846Z,9.18
2022-11-30T12:55:24.871Z,9.30
2022-11-30T13:00:24.738Z,9.32
2022-11-30T13:05:24.679Z,9.07
2022-11-30T13:10:24.634Z,9.13
2022-11-30T13:15:24.598Z,9.14
2022-11-30T13:20:24.521Z,9.29
2022-11-30T13:25:45.274Z,9.29
2022-11-30T13:30:25.413Z,9.30
2022-11-30T13:35:24.382Z,9.33
2022-11-30T13:40:24.308Z,9.28
2022-11-30T13:45:24.256Z,9.27
2022-11-30T13:50:24.203Z,9.25
2022-11-30T13:55:24.172Z,9.33
2022-11-30T14:00:24.092Z,9.37
2022-11-30T14:05:24.033Z,9.31
2022-11-30T14:10:23.983Z,9.27
2022-11-30T14:15:23.954Z,9.34
2022-11-30T14:20:23.876Z,9.21
2022-11-30T14:25:23.827Z,9.21
2022-11-30T14:30:23.764Z,9.35
2022-11-30T14:35:23.751Z,9.44
2022-11-30T14:40:23.658Z,9.27
2022-11-30T14:45:23.618Z,9.20
2022-11-30T14:50:23.553Z,9.15
2022-11-30T14:55:23.566Z,9.03
2022-11-30T15:00:23.445Z,9.11
2022-11-30T15:05:23.396Z,8.97
2022-11-30T15:10:28.077Z,8.96
2022-11-30T15:15:24.319Z,9.00
2022-11-30T15:20:23.233Z,9.08
2022-11-30T15:25:23.177Z,9.04
2022-11-30T15:30:23.133Z,9.02
2022-11-30T15:35:23.093Z,9.04
2022-11-30T15:40:23.019Z,8.98
2022-11-30T15:45:22.966Z,8.93
2022-11-30T15:50:22.912Z,9.06
2022-11-30T15:55:22.955Z,8.99
2022-11-30T16:00:22.803Z,8.89
2022-11-30T16:05:22.755Z,8.78
2022-11-30T16:10:22.699Z,8.78
2022-11-30T16:15:22.688Z,8.82
2022-11-30T16:20:22.596Z,8.75
2022-11-30T16:25:22.539Z,8.78
2022-11-30T16:30:22.491Z,8.75
2022-11-30T16:35:22.450Z,8.76
2022-11-30T16:40:22.378Z,8.77
2022-11-30T16:45:22.527Z,8.78
2022-11-30T16:50:22.273Z,8.77
2022-11-30T16:55:22.241Z,8.75
2022-11-30T17:00:22.166Z,8.80
2022-11-30T17:05:22.114Z,8.80
2022-11-30T17:10:22.056Z,8.77
2022-11-30T17:15:29.065Z,8.84
2022-11-30T17:20:21.947Z,8.92
2022-11-30T17:25:21.903Z,8.69
2022-11-30T17:30:21.851Z,8.78
2022-11-30T17:35:21.814Z,8.71
2022-11-30T17:40:21.740Z,8.89
2022-11-30T17:45:21.683Z,8.93
2022-11-30T17:50:21.650Z,8.93
2022-11-30T17:55:21.590Z,8.78
2022-11-30T18:00:21.526Z,8.94
2022-11-30T18:05:21.476Z,8.88
2022-11-30T18:10:21.416Z,8.79
2022-11-30T18:15:21.394Z,8.76
2022-11-30T18:20:21.314Z,8.91
2022-11-30T18:25:21.270Z,8.85
2022-11-30T18:30:21.197Z,8.74
2022-11-30T18:35:21.171Z,8.94
2022-11-30T18:40:21.097Z,8.70
2022-11-30T18:45:21.042Z,8.85
2022-11-30T18:50:20.995Z,8.71
2022-11-30T18:55:20.972Z,8.61
2022-11-30T19:00:20.884Z,8.63
2022-11-30T19:05:21.267Z,8.78
2022-11-30T19:10:20.771Z,8.63
2022-11-30T19:15:20.746Z,8.67
2022-11-30T19:20:20.678Z,8.69
2022-11-30T19:25:20.619Z,8.62
2022-11-30T19:30:20.574Z,8.51
2022-11-30T19:35:20.533Z,8.53
2022-11-30T19:40:20.458Z,8.51
2022-11-30T19:45:20.405Z,8.58
2022-11-30T19:50:20.355Z,8.63
2022-11-30T19:55:20.329Z,8.68
2022-11-30T20:00:20.243Z,8.73
2022-11-30T20:05:20.189Z,8.78
2022-11-30T20:10:20.140Z,8.77
2022-11-30T20:15:20.104Z,8.88
2022-11-30T20:20:20.033Z,8.90
2022-11-30T20:25:19.985Z,8.76
2022-11-30T20:30:19.933Z,8.80
2022-11-30T20:35:19.914Z,8.69
2022-11-30T20:40:19.816Z,8.83
2022-11-30T20:45:19.764Z,8.67
2022-11-30T20:50:19.710Z,8.70
2022-11-30T20:55:19.675Z,8.77
2022-11-30T21:00:19.604Z,8.71
2022-11-30T21:05:19.552Z,8.65
2022-11-30T21:10:19.499Z,8.49
2022-11-30T21:15:19.469Z,8.58
2022-11-30T21:20:19.394Z,8.66
2022-11-30T21:25:19.336Z,8.63
2022-11-30T21:30:19.283Z,8.61
2022-11-30T21:35:19.254Z,8.54
2022-11-30T21:40:19.173Z,8.61
2022-11-30T21:45:19.123Z,8.54
2022-11-30T21:50:22.984Z,8.61
2022-11-30T21:55:20.041Z,8.51
2022-11-30T22:00:18.959Z,8.61
2022-11-30T22:05:18.913Z,8.54
2022-11-30T22:10:18.870Z,8.60
2022-11-30T22:15:18.826Z,8.51
2022-11-30T22:20:18.754Z,8.61
2022-11-30T22:25:18.702Z,8.60
2022-11-30T22:30:18.646Z,8.56
2022-11-30T22:35:18.608Z,8.65
2022-11-30T22:40:18.534Z,8.55
2022-11-30T22:45:18.501Z,8.74
2022-11-30T22:50:18.467Z,8.59
2022-11-30T22:55:18.526Z,8.70
2022-11-30T23:00:18.323Z,8.66
2022-11-30T23:05:18.269Z,8.72
2022-11-30T23:10:18.217Z,8.58
2022-11-30T23:15:18.189Z,8.55
2022-11-30T23:20:25.145Z,8.66
2022-11-30T23:25:18.056Z,8.86
2022-11-30T23:30:17.998Z,8.87
2022-11-30T23:35:17.976Z,8.84
2022-11-30T23:40:17.898Z,8.65
2022-11-30T23:45:17.841Z,8.73
2022-11-30T23:50:17.824Z,8.47
2022-11-30T23:55:17.750Z,8.45
